Time;durP1;ratioP1;P1;durP2;ratioP2;P2;SDS_P1;SDS_P2;PMS_P1;PMS_P2;Temp;Humidity;BMP_temperature;BMP_pressure;BME280_temperature;BME280_humidity;BME280_pressure;Samples;Min_cycle;Max_cycle;Signal;HPM_P1;HPM_P2
2022/10/13 00:02:23;;;;;;;223.82;147.90;;;;;;;;;;6252215;28;20060;-62
2022/10/13 00:05:25;;;;;;;88.78;55.25;;;;;;;;;;6256167;28;20818;-63
2022/10/13 00:08:27;;;;;;;33.13;21.50;;;;;;;;;;6252851;28;20049;-63
2022/10/13 00:11:30;;;;;;;30.05;19.45;;;;;;;;;;6255877;28;20054;-63
2022/10/13 00:14:33;;;;;;;27.50;19.40;;;;;;;;;;6255492;28;20045;-63
2022/10/13 00:17:35;;;;;;;28.48;18.88;;;;;;;;;;6258720;28;20207;-63
2022/10/13 00:20:41;;;;;;;25.25;18.70;;;;;;;;;;6255566;28;20076;-62
2022/10/13 00:23:43;;;;;;;25.67;18.63;;;;;;;;;;6256009;28;20100;-62
2022/10/13 00:26:44;;;;;;;26.58;18.50;;;;;;;;;;6257338;28;20337;-63
2022/10/13 00:29:47;;;;;;;28.63;19.10;;;;;;;;;;6253997;28;20057;-63
2022/10/13 00:32:49;;;;;;;26.65;18.70;;;;;;;;;;6251138;28;20076;-63
2022/10/13 00:35:51;;;;;;;26.85;19.17;;;;;;;;;;6251617;28;20061;-63
2022/10/13 00:38:53;;;;;;;27.60;19.15;;;;;;;;;;6255617;28;20049;-62
2022/10/13 00:41:54;;;;;;;25.50;18.20;;;;;;;;;;6254105;28;20065;-62
2022/10/13 00:45:04;;;;;;;26.38;18.48;;;;;;;;;;6256693;28;20041;-62
2022/10/13 00:48:06;;;;;;;26.45;19.63;;;;;;;;;;6254163;28;20262;-62
2022/10/13 00:51:08;;;;;;;26.15;19.55;;;;;;;;;;6252576;28;20103;-62
2022/10/13 00:54:11;;;;;;;27.70;19.45;;;;;;;;;;6255358;28;20053;-63
2022/10/13 00:57:13;;;;;;;27.67;19.38;;;;;;;;;;6251559;28;20379;-63
2022/10/13 01:00:17;;;;;;;27.77;20.58;;;;;;;;;;6248858;28;20049;-63
2022/10/13 01:03:19;;;;;;;28.42;19.95;;;;;;;;;;6251856;28;20053;-62
2022/10/13 01:06:21;;;;;;;28.10;19.60;;;;;;;;;;6251342;28;20049;-62
2022/10/13 01:09:23;;;;;;;26.02;19.90;;;;;;;;;;6251957;28;20061;-62
2022/10/13 01:12:34;;;;;;;29.85;20.17;;;;;;;;;;6251858;28;20061;-62
2022/10/13 01:15:41;;;;;;;28.05;19.65;;;;;;;;;;6251475;28;20053;-62
2022/10/13 01:18:46;;;;;;;27.63;19.90;;;;;;;;;;6253365;28;20061;-62
2022/10/13 01:21:55;;;;;;;31.08;19.67;;;;;;;;;;6246696;28;20057;-62
2022/10/13 01:25:03;;;;;;;25.38;19.58;;;;;;;;;;6254798;28;20064;-63
2022/10/13 01:28:27;;;;;;;28.58;19.52;;;;;;;;;;6253688;28;20279;-62
2022/10/13 01:32:02;;;;;;;29.13;19.08;;;;;;;;;;6253023;28;20190;-62
2022/10/13 01:35:08;;;;;;;28.63;19.48;;;;;;;;;;6251206;28;20045;-63
2022/10/13 01:38:16;;;;;;;30.20;19.92;;;;;;;;;;6258316;28;20045;-62
2022/10/13 01:41:23;;;;;;;25.77;19.00;;;;;;;;;;6256275;28;20045;-62
2022/10/13 01:44:27;;;;;;;29.85;20.60;;;;;;;;;;6251242;28;20214;-63
2022/10/13 01:47:32;;;;;;;25.58;19.27;;;;;;;;;;6253671;28;20061;-63
2022/10/13 01:50:35;;;;;;;29.85;20.77;;;;;;;;;;6254369;28;20119;-62
2022/10/13 01:53:37;;;;;;;34.33;21.33;;;;;;;;;;6253509;28;20341;-63
2022/10/13 01:56:39;;;;;;;30.52;20.55;;;;;;;;;;6258753;28;20338;-62
2022/10/13 01:59:41;;;;;;;29.98;20.30;;;;;;;;;;6254685;28;20072;-63
2022/10/13 02:02:49;;;;;;;28.40;20.80;;;;;;;;;;6253616;28;20296;-63
2022/10/13 02:05:57;;;;;;;27.33;20.27;;;;;;;;;;6250873;28;20383;-63
2022/10/13 02:09:01;;;;;;;31.13;21.20;;;;;;;;;;6256213;28;20045;-62
2022/10/13 02:12:07;;;;;;;30.10;21.95;;;;;;;;;;6256169;28;20057;-62
2022/10/13 02:15:13;;;;;;;28.27;19.30;;;;;;;;;;6250366;28;20061;-62
2022/10/13 02:18:19;;;;;;;30.35;20.65;;;;;;;;;;6255802;28;20049;-63
2022/10/13 02:21:20;;;;;;;29.45;21.25;;;;;;;;;;6251769;28;20061;-62
2022/10/13 02:24:22;;;;;;;32.20;20.48;;;;;;;;;;6253580;28;20045;-62
2022/10/13 02:27:24;;;;;;;32.20;21.05;;;;;;;;;;6256134;28;20053;-62
2022/10/13 02:30:27;;;;;;;33.35;22.15;;;;;;;;;;6251967;28;20056;-63
2022/10/13 02:33:30;;;;;;;;;;;;;;;;;;6256054;28;20053;-63
2022/10/13 02:36:32;;;;;;;28.50;20.33;;;;;;;;;;6256401;28;19928;-62
2022/10/13 02:39:33;;;;;;;27.30;19.92;;;;;;;;;;6258201;28;20045;-63
2022/10/13 02:42:35;;;;;;;29.65;20.95;;;;;;;;;;6254955;28;20109;-62
2022/10/13 02:45:36;;;;;;;30.25;21.25;;;;;;;;;;6251452;28;20076;-63
2022/10/13 02:48:40;;;;;;;31.20;21.60;;;;;;;;;;6254940;28;20321;-62
2022/10/13 02:51:41;;;;;;;28.13;19.98;;;;;;;;;;6254368;28;20290;-64
2022/10/13 02:54:43;;;;;;;31.33;21.63;;;;;;;;;;6252101;28;20049;-64
2022/10/13 02:57:44;;;;;;;29.83;20.25;;;;;;;;;;6252290;28;20080;-64
2022/10/13 03:00:46;;;;;;;26.83;19.85;;;;;;;;;;6254679;28;20049;-64
2022/10/13 03:03:49;;;;;;;26.92;20.65;;;;;;;;;;6257933;28;20119;-63
2022/10/13 03:06:51;;;;;;;29.20;21.50;;;;;;;;;;6258440;28;20065;-64
2022/10/13 03:09:52;;;;;;;30.33;19.30;;;;;;;;;;6257480;28;20475;-63
2022/10/13 03:12:54;;;;;;;27.92;19.50;;;;;;;;;;6254314;28;20057;-63
2022/10/13 03:15:56;;;;;;;30.90;19.52;;;;;;;;;;6262011;28;20119;-63
2022/10/13 03:18:59;;;;;;;28.20;20.58;;;;;;;;;;6255408;28;20060;-63
2022/10/13 03:22:01;;;;;;;31.03;20.20;;;;;;;;;;6257506;28;20045;-63
2022/10/13 03:25:03;;;;;;;27.88;19.98;;;;;;;;;;6253186;28;20510;-63
2022/10/13 03:28:05;;;;;;;28.75;20.73;;;;;;;;;;6256604;28;20064;-62
2022/10/13 03:31:09;;;;;;;30.80;20.73;;;;;;;;;;6253628;28;20316;-64
2022/10/13 03:34:12;;;;;;;;;;;;;;;;;;6255466;28;20352;-62
2022/10/13 03:37:14;;;;;;;32.08;20.42;;;;;;;;;;6253480;28;20007;-63
2022/10/13 03:40:16;;;;;;;26.50;19.95;;;;;;;;;;6256185;28;20045;-62
2022/10/13 03:43:17;;;;;;;31.48;19.42;;;;;;;;;;6255258;28;20049;-63
2022/10/13 03:46:19;;;;;;;30.10;20.35;;;;;;;;;;6254784;28;20053;-61
2022/10/13 03:49:22;;;;;;;28.15;19.58;;;;;;;;;;6254656;28;20144;-62
2022/10/13 03:52:24;;;;;;;33.83;20.90;;;;;;;;;;6248090;28;20053;-63
2022/10/13 03:55:25;;;;;;;26.42;18.27;;;;;;;;;;6252937;28;20053;-63
2022/10/13 03:58:28;;;;;;;29.73;21.45;;;;;;;;;;6255065;28;20054;-62
2022/10/13 04:01:30;;;;;;;32.13;20.15;;;;;;;;;;6249470;28;20132;-63
2022/10/13 04:04:34;;;;;;;26.42;20.27;;;;;;;;;;6251679;28;20053;-62
2022/10/13 04:07:35;;;;;;;;;;;;;;;;;;6252737;28;20056;-63
2022/10/13 04:10:37;;;;;;;30.55;19.88;;;;;;;;;;6253998;28;20011;-63
2022/10/13 04:13:39;;;;;;;29.63;19.30;;;;;;;;;;6252327;28;20186;-63
2022/10/13 04:16:40;;;;;;;30.67;20.70;;;;;;;;;;6252791;28;20057;-63
2022/10/13 04:19:43;;;;;;;26.40;19.35;;;;;;;;;;6253903;28;20061;-62
2022/10/13 04:22:45;;;;;;;31.50;19.67;;;;;;;;;;6252967;28;20237;-62
2022/10/13 04:25:47;;;;;;;28.13;18.65;;;;;;;;;;6252644;28;20056;-63
2022/10/13 04:28:49;;;;;;;27.27;19.70;;;;;;;;;;6251119;28;20049;-62
2022/10/13 04:31:51;;;;;;;28.70;19.35;;;;;;;;;;6255883;28;20367;-63
2022/10/13 04:34:54;;;;;;;29.55;18.70;;;;;;;;;;6247742;28;20068;-63
2022/10/13 04:37:56;;;;;;;27.53;19.43;;;;;;;;;;6247708;28;20053;-61
2022/10/13 04:40:58;;;;;;;26.38;18.75;;;;;;;;;;6255322;28;20467;-61
2022/10/13 04:44:01;;;;;;;26.27;18.65;;;;;;;;;;6252375;28;20064;-62
2022/10/13 04:47:02;;;;;;;29.48;19.38;;;;;;;;;;6254507;28;20292;-62
2022/10/13 04:50:06;;;;;;;26.65;18.38;;;;;;;;;;6252390;28;20363;-61
2022/10/13 04:53:08;;;;;;;26.02;19.23;;;;;;;;;;6253783;28;20049;-62
2022/10/13 04:56:11;;;;;;;30.15;19.27;;;;;;;;;;6252672;28;20057;-62
2022/10/13 04:59:13;;;;;;;28.42;18.50;;;;;;;;;;6254538;28;20069;-61
2022/10/13 05:02:15;;;;;;;27.38;18.40;;;;;;;;;;6252706;28;20390;-62
2022/10/13 05:05:18;;;;;;;22.80;18.02;;;;;;;;;;6252355;28;20064;-62
2022/10/13 05:08:20;;;;;;;26.73;19.15;;;;;;;;;;6250086;28;20091;-62
2022/10/13 05:11:23;;;;;;;28.85;19.27;;;;;;;;;;6254102;28;20367;-62
2022/10/13 05:14:24;;;;;;;26.77;18.98;;;;;;;;;;6251340;28;20346;-61
2022/10/13 05:17:26;;;;;;;31.17;19.33;;;;;;;;;;6257008;28;20049;-63
2022/10/13 05:20:29;;;;;;;30.83;18.88;;;;;;;;;;6252757;28;20055;-62
2022/10/13 05:23:31;;;;;;;27.57;19.47;;;;;;;;;;6251180;28;20053;-62
2022/10/13 05:26:35;;;;;;;27.13;18.92;;;;;;;;;;6252851;28;20048;-62
2022/10/13 05:29:37;;;;;;;26.67;18.20;;;;;;;;;;6249115;28;20277;-62
2022/10/13 05:32:39;;;;;;;25.95;18.20;;;;;;;;;;6253849;28;20284;-62
2022/10/13 05:35:42;;;;;;;29.92;18.85;;;;;;;;;;6247566;28;20061;-62
2022/10/13 05:38:43;;;;;;;29.80;18.97;;;;;;;;;;6248782;28;20052;-62
2022/10/13 05:41:45;;;;;;;29.27;18.83;;;;;;;;;;6250088;28;20115;-62
2022/10/13 05:44:47;;;;;;;28.30;17.92;;;;;;;;;;6252947;28;20049;-62
2022/10/13 05:47:48;;;;;;;28.65;18.52;;;;;;;;;;6248543;28;20049;-62
2022/10/13 05:50:51;;;;;;;27.65;18.40;;;;;;;;;;6247066;28;20314;-62
2022/10/13 05:53:59;;;;;;;31.42;18.38;;;;;;;;;;6253141;28;20301;-62
2022/10/13 05:57:03;;;;;;;31.45;18.98;;;;;;;;;;6249893;28;20101;-64
2022/10/13 06:00:07;;;;;;;28.02;18.05;;;;;;;;;;6248828;28;20423;-63
2022/10/13 06:03:12;;;;;;;30.50;17.50;;;;;;;;;;6245607;28;20240;-63
2022/10/13 06:06:15;;;;;;;29.45;17.90;;;;;;;;;;6247764;28;20387;-63
2022/10/13 06:09:17;;;;;;;39.40;19.73;;;;;;;;;;6249479;28;20045;-63
2022/10/13 06:12:19;;;;;;;28.10;18.05;;;;;;;;;;6250771;28;20345;-64
2022/10/13 06:15:20;;;;;;;34.90;19.17;;;;;;;;;;6249924;28;20061;-63
2022/10/13 06:18:22;;;;;;;29.95;18.48;;;;;;;;;;6248431;28;20053;-63
2022/10/13 06:21:25;;;;;;;34.75;20.00;;;;;;;;;;6250663;28;20053;-64
2022/10/13 06:24:27;;;;;;;33.17;19.27;;;;;;;;;;6245189;28;21115;-63
2022/10/13 06:27:28;;;;;;;31.45;18.80;;;;;;;;;;6241269;28;20117;-63
2022/10/13 06:30:30;;;;;;;28.27;18.25;;;;;;;;;;6247881;28;20314;-63
2022/10/13 06:33:32;;;;;;;28.80;17.38;;;;;;;;;;6245597;28;20116;-63
2022/10/13 06:36:35;;;;;;;33.42;20.02;;;;;;;;;;6249172;28;20159;-63
2022/10/13 06:39:36;;;;;;;31.07;18.70;;;;;;;;;;6252592;28;20061;-63
2022/10/13 06:42:38;;;;;;;29.73;19.70;;;;;;;;;;6251504;28;20037;-63
2022/10/13 06:45:40;;;;;;;29.05;19.30;;;;;;;;;;6251236;28;20095;-63
2022/10/13 06:48:41;;;;;;;31.48;19.33;;;;;;;;;;6251314;28;20329;-62
2022/10/13 06:51:44;;;;;;;29.20;18.88;;;;;;;;;;6253390;28;20073;-63
2022/10/13 06:54:46;;;;;;;29.00;19.33;;;;;;;;;;6253180;28;20266;-63
2022/10/13 06:57:48;;;;;;;29.20;20.15;;;;;;;;;;6251744;28;20048;-63
2022/10/13 07:00:49;;;;;;;29.20;19.25;;;;;;;;;;6250035;28;20241;-62
2022/10/13 07:03:51;;;;;;;27.48;18.60;;;;;;;;;;6250730;28;20057;-62
2022/10/13 07:06:54;;;;;;;29.75;18.27;;;;;;;;;;6250507;28;20057;-63
2022/10/13 07:09:56;;;;;;;24.15;16.98;;;;;;;;;;6249547;28;20320;-63
2022/10/13 07:12:57;;;;;;;28.63;18.85;;;;;;;;;;6251664;28;20144;-63
2022/10/13 07:15:59;;;;;;;26.48;17.52;;;;;;;;;;6250335;28;20226;-63
2022/10/13 07:19:00;;;;;;;27.13;16.77;;;;;;;;;;6251786;28;20064;-63
2022/10/13 07:22:03;;;;;;;26.92;16.75;;;;;;;;;;6250121;28;20329;-63
2022/10/13 07:25:06;;;;;;;31.13;17.90;;;;;;;;;;6251177;28;20054;-63
2022/10/13 07:28:08;;;;;;;26.93;17.53;;;;;;;;;;6251270;28;20064;-63
2022/10/13 07:31:12;;;;;;;27.63;17.10;;;;;;;;;;6253610;28;20053;-63
2022/10/13 07:34:15;;;;;;;24.92;16.35;;;;;;;;;;6251419;28;20052;-62
2022/10/13 07:37:18;;;;;;;23.87;16.07;;;;;;;;;;6250421;28;20088;-62
2022/10/13 07:40:19;;;;;;;22.98;15.15;;;;;;;;;;6250307;28;20371;-62
2022/10/13 07:43:21;;;;;;;18.20;12.63;;;;;;;;;;6252072;28;20127;-62
2022/10/13 07:46:24;;;;;;;17.45;11.88;;;;;;;;;;6250698;28;20329;-63
2022/10/13 07:49:25;;;;;;;19.07;13.57;;;;;;;;;;6253934;28;20369;-63
2022/10/13 07:52:28;;;;;;;21.52;12.98;;;;;;;;;;6257365;28;20045;-63
2022/10/13 07:55:30;;;;;;;23.08;14.43;;;;;;;;;;6257286;28;20057;-63
2022/10/13 07:58:32;;;;;;;21.08;14.57;;;;;;;;;;6254621;28;20042;-63
2022/10/13 08:01:34;;;;;;;22.55;13.95;;;;;;;;;;6253916;28;20045;-63
2022/10/13 08:04:35;;;;;;;17.98;11.20;;;;;;;;;;6253929;28;20060;-63
2022/10/13 08:07:38;;;;;;;18.40;13.48;;;;;;;;;;6255749;28;20057;-63
2022/10/13 08:10:40;;;;;;;20.27;12.73;;;;;;;;;;6254605;28;20064;-63
2022/10/13 08:13:42;;;;;;;21.85;13.35;;;;;;;;;;6253702;28;20061;-63
2022/10/13 08:16:44;;;;;;;19.40;12.35;;;;;;;;;;6255040;28;20065;-63
2022/10/13 08:19:46;;;;;;;21.27;12.88;;;;;;;;;;6255492;28;20057;-63
2022/10/13 08:22:49;;;;;;;19.88;12.63;;;;;;;;;;6255966;28;20348;-63
2022/10/13 08:25:50;;;;;;;17.05;11.85;;;;;;;;;;6254827;28;20053;-63
2022/10/13 08:28:52;;;;;;;18.20;12.60;;;;;;;;;;6255439;28;20456;-63
2022/10/13 08:31:55;;;;;;;23.38;12.82;;;;;;;;;;6257688;28;20276;-64
2022/10/13 08:34:56;;;;;;;16.30;10.77;;;;;;;;;;6254152;28;20099;-63
2022/10/13 08:38:00;;;;;;;16.38;10.23;;;;;;;;;;6256014;28;20061;-63
2022/10/13 08:41:02;;;;;;;18.80;11.63;;;;;;;;;;6256035;28;20045;-62
2022/10/13 08:44:05;;;;;;;21.15;12.82;;;;;;;;;;6256494;28;20202;-63
2022/10/13 08:47:11;;;;;;;16.38;11.88;;;;;;;;;;6254426;28;20061;-63
2022/10/13 08:50:15;;;;;;;19.40;12.55;;;;;;;;;;6251468;28;20121;-64
2022/10/13 08:53:24;;;;;;;20.70;13.48;;;;;;;;;;6257264;28;20049;-62
2022/10/13 08:56:27;;;;;;;18.30;12.95;;;;;;;;;;6253351;28;20053;-62
2022/10/13 08:59:29;;;;;;;21.05;12.45;;;;;;;;;;6253640;28;20091;-62
2022/10/13 09:02:31;;;;;;;19.15;12.23;;;;;;;;;;6252647;28;21487;-62
2022/10/13 09:05:38;;;;;;;16.88;11.68;;;;;;;;;;6253433;28;20202;-62
2022/10/13 09:08:44;;;;;;;22.35;13.52;;;;;;;;;;6252669;28;20045;-62
2022/10/13 09:11:47;;;;;;;16.85;12.25;;;;;;;;;;6252361;28;20116;-64
2022/10/13 09:14:56;;;;;;;;;;;;;;;;;;6254469;28;20118;-63
2022/10/13 09:18:09;;;;;;;18.30;11.80;;;;;;;;;;6256066;28;20043;-62
2022/10/13 09:21:15;;;;;;;16.70;11.32;;;;;;;;;;6255866;28;20120;-63
2022/10/13 09:24:20;;;;;;;19.70;12.85;;;;;;;;;;6251133;28;20057;-63
2022/10/13 09:27:21;;;;;;;16.50;11.50;;;;;;;;;;6253280;28;20053;-63
2022/10/13 09:30:31;;;;;;;16.35;10.27;;;;;;;;;;6251733;28;20049;-63
2022/10/13 09:33:35;;;;;;;16.13;9.95;;;;;;;;;;6253805;28;20085;-63
2022/10/13 09:36:38;;;;;;;19.13;11.45;;;;;;;;;;6251829;28;20057;-63
2022/10/13 09:39:41;;;;;;;21.48;11.80;;;;;;;;;;6250143;28;20057;-64
2022/10/13 09:42:42;;;;;;;22.10;13.00;;;;;;;;;;6250186;28;20280;-63
2022/10/13 09:45:44;;;;;;;18.67;12.52;;;;;;;;;;6252757;28;20329;-63
2022/10/13 09:48:49;;;;;;;18.05;13.10;;;;;;;;;;6253554;28;20053;-63
2022/10/13 09:51:51;;;;;;;19.33;13.35;;;;;;;;;;6253494;28;20064;-63
2022/10/13 09:54:57;;;;;;;14.18;9.18;;;;;;;;;;6251357;28;20096;-63
2022/10/13 09:58:03;;;;;;;16.52;10.02;;;;;;;;;;6251605;28;20041;-63
2022/10/13 10:01:06;;;;;;;15.80;10.07;;;;;;;;;;6250431;28;20301;-63
2022/10/13 10:04:14;;;;;;;20.77;16.02;;;;;;;;;;6254293;28;20052;-64
2022/10/13 10:07:20;;;;;;;17.90;11.45;;;;;;;;;;6252757;28;20116;-63
2022/10/13 10:10:34;;;;;;;18.17;13.55;;;;;;;;;;6251869;28;20241;-63
2022/10/13 10:13:36;;;;;;;16.98;11.32;;;;;;;;;;6252205;28;20045;-63
2022/10/13 10:16:43;;;;;;;25.73;14.27;;;;;;;;;;6250720;28;20045;-63
2022/10/13 10:19:51;;;;;;;24.83;14.98;;;;;;;;;;6249072;28;20061;-63
2022/10/13 10:22:56;;;;;;;17.50;11.48;;;;;;;;;;6250915;28;20331;-63
2022/10/13 10:26:02;;;;;;;22.52;14.93;;;;;;;;;;6252766;28;20072;-63
2022/10/13 10:29:20;;;;;;;18.13;11.88;;;;;;;;;;6251557;28;20053;-63
2022/10/13 10:32:28;;;;;;;18.50;12.65;;;;;;;;;;6249856;28;20063;-62
2022/10/13 10:35:38;;;;;;;150.77;110.88;;;;;;;;;;6249564;28;20131;-62
2022/10/13 10:38:45;;;;;;;120.45;84.28;;;;;;;;;;6250712;28;20329;-61
2022/10/13 10:41:53;;;;;;;37.70;24.67;;;;;;;;;;6250573;28;20137;-62
2022/10/13 10:44:55;;;;;;;130.98;97.13;;;;;;;;;;6250636;28;20115;-61
2022/10/13 10:47:59;;;;;;;48.92;34.88;;;;;;;;;;6249394;28;20073;-63
2022/10/13 10:51:01;;;;;;;20.50;15.25;;;;;;;;;;6247524;28;20057;-63
2022/10/13 10:54:16;;;;;;;22.67;15.50;;;;;;;;;;6252256;28;20054;-64
2022/10/13 10:57:23;;;;;;;25.70;17.13;;;;;;;;;;6251645;28;20267;-64
2022/10/13 11:00:25;;;;;;;29.13;19.98;;;;;;;;;;6250138;28;20052;-63
2022/10/13 11:03:36;;;;;;;23.33;18.23;;;;;;;;;;6250886;28;20129;-64
2022/10/13 11:06:38;;;;;;;27.65;17.73;;;;;;;;;;6248558;28;20057;-64
2022/10/13 11:10:03;;;;;;;25.23;18.80;;;;;;;;;;6250005;28;20057;-64
2022/10/13 11:13:21;;;;;;;26.83;17.98;;;;;;;;;;6250033;28;21501;-65
2022/10/13 11:16:29;;;;;;;30.48;21.77;;;;;;;;;;6251269;28;20124;-63
2022/10/13 11:19:31;;;;;;;29.92;20.58;;;;;;;;;;6253286;28;20143;-64
2022/10/13 11:22:33;;;;;;;24.73;16.55;;;;;;;;;;6250371;28;20053;-63
2022/10/13 11:25:38;;;;;;;31.48;21.95;;;;;;;;;;6254268;28;20064;-63
2022/10/13 11:28:47;;;;;;;28.27;20.08;;;;;;;;;;6254551;28;20120;-62
2022/10/13 11:31:54;;;;;;;31.20;22.35;;;;;;;;;;6256601;28;20231;-63
2022/10/13 11:34:58;;;;;;;23.05;16.63;;;;;;;;;;6258371;28;20311;-65
2022/10/13 11:38:16;;;;;;;22.00;14.60;;;;;;;;;;6253671;28;20057;-64
2022/10/13 11:41:21;;;;;;;32.88;23.45;;;;;;;;;;6256572;28;20057;-67
2022/10/13 11:44:28;;;;;;;34.08;21.00;;;;;;;;;;6254260;28;20057;-66
2022/10/13 11:47:58;;;;;;;24.40;18.95;;;;;;;;;;6259535;28;20152;-65
2022/10/13 11:51:10;;;;;;;29.88;21.25;;;;;;;;;;6247032;28;20045;-66
2022/10/13 11:54:19;;;;;;;29.08;22.55;;;;;;;;;;6258294;28;20278;-65
2022/10/13 11:57:23;;;;;;;28.52;19.17;;;;;;;;;;6260422;28;20072;-65
2022/10/13 12:00:26;;;;;;;39.78;27.83;;;;;;;;;;6259417;28;20352;-66
2022/10/13 12:03:30;;;;;;;30.58;22.55;;;;;;;;;;6260210;28;20242;-66
2022/10/13 12:06:34;;;;;;;36.10;23.17;;;;;;;;;;6258865;28;20327;-66
2022/10/13 12:09:48;;;;;;;31.42;21.77;;;;;;;;;;6258364;28;20049;-66
2022/10/13 12:12:51;;;;;;;26.15;18.08;;;;;;;;;;6248572;28;20060;-66
2022/10/13 12:16:01;;;;;;;27.13;18.17;;;;;;;;;;6246347;28;20053;-66
2022/10/13 12:19:08;;;;;;;23.83;15.85;;;;;;;;;;6255765;28;20099;-66
2022/10/13 12:22:12;;;;;;;30.00;21.75;;;;;;;;;;6258473;28;20123;-65
2022/10/13 12:25:17;;;;;;;36.70;25.10;;;;;;;;;;6257758;28;20061;-64
2022/10/13 12:28:19;;;;;;;32.67;22.77;;;;;;;;;;6256743;28;20224;-63
2022/10/13 12:31:23;;;;;;;32.20;23.05;;;;;;;;;;6257957;28;20620;-66
2022/10/13 12:34:27;;;;;;;36.38;22.00;;;;;;;;;;6256860;28;20060;-65
2022/10/13 12:37:32;;;;;;;32.30;22.63;;;;;;;;;;6258238;28;20057;-66
2022/10/13 12:40:33;;;;;;;30.88;19.52;;;;;;;;;;6257350;28;20048;-67
2022/10/13 12:43:35;;;;;;;32.05;20.70;;;;;;;;;;6257346;28;20053;-66
2022/10/13 12:46:40;;;;;;;39.70;25.40;;;;;;;;;;6256202;28;20297;-66
2022/10/13 12:49:42;;;;;;;36.15;23.00;;;;;;;;;;6257739;28;20049;-66
2022/10/13 12:52:43;;;;;;;33.95;22.75;;;;;;;;;;6256827;28;20349;-65
2022/10/13 12:55:48;;;;;;;38.47;23.65;;;;;;;;;;6257446;28;20063;-66
2022/10/13 12:58:50;;;;;;;32.13;23.05;;;;;;;;;;6255142;28;20053;-65
2022/10/13 13:01:59;;;;;;;37.47;22.83;;;;;;;;;;6252762;28;20054;-65
2022/10/13 13:05:00;;;;;;;33.83;24.88;;;;;;;;;;6255741;28;20061;-64
2022/10/13 13:08:03;;;;;;;37.35;24.35;;;;;;;;;;6256432;28;20194;-64
2022/10/13 13:11:06;;;;;;;37.30;24.10;;;;;;;;;;6254452;28;20105;-65
2022/10/13 13:14:35;;;;;;;38.10;24.95;;;;;;;;;;6257746;28;20280;-63
2022/10/13 13:17:38;;;;;;;43.55;28.90;;;;;;;;;;6259076;28;20103;-63
2022/10/13 13:20:40;;;;;;;40.95;27.35;;;;;;;;;;6257305;28;20053;-63
2022/10/13 13:23:44;;;;;;;44.30;30.17;;;;;;;;;;6259432;28;20060;-64
2022/10/13 13:26:47;;;;;;;36.50;25.63;;;;;;;;;;6252632;28;20403;-65
2022/10/13 13:29:48;;;;;;;37.30;25.88;;;;;;;;;;6251499;28;20104;-65
2022/10/13 13:32:51;;;;;;;44.00;27.30;;;;;;;;;;6258261;28;20057;-64
2022/10/13 13:35:53;;;;;;;40.00;26.15;;;;;;;;;;6251861;28;20344;-64
2022/10/13 13:38:55;;;;;;;39.90;27.65;;;;;;;;;;6252939;28;20318;-65
2022/10/13 13:41:57;;;;;;;36.20;24.25;;;;;;;;;;6252042;28;20214;-64
2022/10/13 13:45:00;;;;;;;36.03;23.48;;;;;;;;;;6255573;28;20045;-66
2022/10/13 13:48:03;;;;;;;45.40;27.27;;;;;;;;;;6255217;28;20092;-64
2022/10/13 13:51:05;;;;;;;41.45;28.13;;;;;;;;;;6252872;28;20407;-65
2022/10/13 13:54:07;;;;;;;37.83;24.27;;;;;;;;;;6253765;28;20048;-65
2022/10/13 13:57:09;;;;;;;35.15;23.90;;;;;;;;;;6252281;28;20056;-65
2022/10/13 14:00:14;;;;;;;39.50;26.13;;;;;;;;;;6252977;28;20186;-66
2022/10/13 14:03:17;;;;;;;32.78;22.27;;;;;;;;;;6253015;28;20045;-65
2022/10/13 14:06:21;;;;;;;31.48;22.38;;;;;;;;;;6253576;28;20095;-64
2022/10/13 14:09:23;;;;;;;36.72;25.10;;;;;;;;;;6252730;28;20693;-64
2022/10/13 14:12:24;;;;;;;34.90;23.02;;;;;;;;;;6249669;28;20368;-62
2022/10/13 14:15:26;;;;;;;38.35;25.55;;;;;;;;;;6251650;28;20057;-65
2022/10/13 14:18:30;;;;;;;41.25;25.95;;;;;;;;;;6249765;28;20076;-65
2022/10/13 14:21:32;;;;;;;39.63;26.77;;;;;;;;;;6253155;28;20233;-65
2022/10/13 14:24:33;;;;;;;34.60;22.85;;;;;;;;;;6249287;28;20068;-64
2022/10/13 14:27:35;;;;;;;37.35;24.05;;;;;;;;;;6250884;28;20064;-64
2022/10/13 14:30:39;;;;;;;42.65;27.92;;;;;;;;;;6250806;28;20045;-65
2022/10/13 14:33:42;;;;;;;39.10;25.80;;;;;;;;;;6250523;28;20075;-64
2022/10/13 14:36:44;;;;;;;37.15;25.15;;;;;;;;;;6251219;28;20186;-64
2022/10/13 14:39:45;;;;;;;37.00;24.20;;;;;;;;;;6249621;28;20053;-65
2022/10/13 14:42:47;;;;;;;40.10;25.25;;;;;;;;;;6250467;28;20300;-64
2022/10/13 14:45:49;;;;;;;42.92;26.42;;;;;;;;;;6249854;28;20321;-65
2022/10/13 14:48:52;;;;;;;40.88;26.10;;;;;;;;;;6248876;28;20392;-63
2022/10/13 14:51:54;;;;;;;34.50;23.75;;;;;;;;;;6251567;28;20245;-63
2022/10/13 14:54:55;;;;;;;37.65;24.13;;;;;;;;;;6248942;28;20111;-63
2022/10/13 14:57:57;;;;;;;35.58;23.52;;;;;;;;;;6253071;28;20324;-63
2022/10/13 15:00:59;;;;;;;32.15;21.48;;;;;;;;;;6253222;28;20053;-62
2022/10/13 15:04:02;;;;;;;147.02;102.72;;;;;;;;;;6254156;28;20045;-62
2022/10/13 15:07:04;;;;;;;83.68;55.38;;;;;;;;;;6254845;28;20111;-61
2022/10/13 15:10:07;;;;;;;145.27;90.03;;;;;;;;;;6254777;28;20088;-62
2022/10/13 15:13:09;;;;;;;68.35;43.03;;;;;;;;;;6253343;28;20056;-64
2022/10/13 15:16:16;;;;;;;37.60;25.77;;;;;;;;;;6253643;28;20122;-64
2022/10/13 15:19:19;;;;;;;41.25;27.73;;;;;;;;;;6256488;28;20383;-64
2022/10/13 15:22:21;;;;;;;;;;;;;;;;;;6254440;28;20053;-65
2022/10/13 15:25:22;;;;;;;36.20;22.77;;;;;;;;;;6255845;28;19924;-64
2022/10/13 15:28:25;;;;;;;35.38;24.65;;;;;;;;;;6254575;28;20068;-63
2022/10/13 15:31:27;;;;;;;33.67;23.33;;;;;;;;;;6253697;28;20053;-64
2022/10/13 15:34:30;;;;;;;35.10;21.05;;;;;;;;;;6252850;28;20474;-64
2022/10/13 15:37:31;;;;;;;36.58;23.88;;;;;;;;;;6256263;28;20062;-64
2022/10/13 15:40:34;;;;;;;41.47;25.95;;;;;;;;;;6255011;28;20061;-65
2022/10/13 15:43:36;;;;;;;39.17;25.60;;;;;;;;;;6254554;28;20595;-65
2022/10/13 15:46:38;;;;;;;40.80;26.08;;;;;;;;;;6255877;28;20050;-66
2022/10/13 15:49:41;;;;;;;30.80;21.77;;;;;;;;;;6253446;28;20108;-64
2022/10/13 15:52:43;;;;;;;30.65;20.58;;;;;;;;;;6254763;28;20144;-64
2022/10/13 15:55:44;;;;;;;31.27;22.10;;;;;;;;;;6254242;28;20105;-64
2022/10/13 15:58:46;;;;;;;37.80;24.20;;;;;;;;;;6254500;28;20049;-64
2022/10/13 16:01:48;;;;;;;34.75;21.42;;;;;;;;;;6256515;28;20056;-64
2022/10/13 16:04:51;;;;;;;32.13;19.95;;;;;;;;;;6251367;28;20097;-68
2022/10/13 16:07:52;;;;;;;;;;;;;;;;;;6253622;28;20053;-66
2022/10/13 16:10:55;;;;;;;36.20;24.15;;;;;;;;;;6254826;28;19925;-69
2022/10/13 16:13:57;;;;;;;38.55;24.85;;;;;;;;;;6252935;28;20751;-66
2022/10/13 16:16:58;;;;;;;37.53;24.50;;;;;;;;;;6252407;28;20332;-64
2022/10/13 16:20:02;;;;;;;36.10;22.50;;;;;;;;;;6252915;28;20162;-65
2022/10/13 16:23:03;;;;;;;38.90;24.30;;;;;;;;;;6251978;28;20124;-65
2022/10/13 16:26:06;;;;;;;37.72;24.35;;;;;;;;;;6252850;28;20060;-66
2022/10/13 16:29:08;;;;;;;36.50;23.93;;;;;;;;;;6251586;28;20188;-65
2022/10/13 16:32:09;;;;;;;38.08;23.55;;;;;;;;;;6252552;28;20489;-64
2022/10/13 16:35:13;;;;;;;34.40;22.70;;;;;;;;;;6252527;28;20056;-64
2022/10/13 16:38:14;;;;;;;35.47;22.95;;;;;;;;;;6251282;28;20069;-65
2022/10/13 16:41:18;;;;;;;38.53;24.35;;;;;;;;;;6252719;28;20053;-64
2022/10/13 16:44:20;;;;;;;37.20;25.52;;;;;;;;;;6254071;28;20060;-65
2022/10/13 16:47:21;;;;;;;38.00;25.42;;;;;;;;;;6253115;28;20348;-65
2022/10/13 16:50:24;;;;;;;39.50;25.70;;;;;;;;;;6251781;28;20053;-65
2022/10/13 16:53:26;;;;;;;42.22;25.65;;;;;;;;;;6253305;28;20045;-65
2022/10/13 16:56:28;;;;;;;41.30;22.17;;;;;;;;;;6252715;28;20049;-65
2022/10/13 16:59:29;;;;;;;34.85;20.73;;;;;;;;;;6254295;28;20364;-65
2022/10/13 17:02:31;;;;;;;34.10;23.20;;;;;;;;;;6252933;28;20053;-64
2022/10/13 17:05:34;;;;;;;38.30;23.35;;;;;;;;;;6253670;28;20045;-65
2022/10/13 17:08:36;;;;;;;34.45;23.27;;;;;;;;;;6252160;28;20147;-64
2022/10/13 17:11:38;;;;;;;34.72;21.98;;;;;;;;;;6250108;28;20128;-64
2022/10/13 17:14:40;;;;;;;38.05;24.35;;;;;;;;;;6251616;28;20176;-64
2022/10/13 17:17:42;;;;;;;35.63;22.88;;;;;;;;;;6250569;28;20073;-65
2022/10/13 17:20:57;;;;;;;35.83;24.33;;;;;;;;;;6253848;28;20232;-64
2022/10/13 17:23:59;;;;;;;37.22;25.35;;;;;;;;;;6254255;28;20049;-64
2022/10/13 17:27:00;;;;;;;35.03;23.60;;;;;;;;;;6253206;28;20055;-64
2022/10/13 17:30:03;;;;;;;41.42;25.63;;;;;;;;;;6250339;28;20107;-63
2022/10/13 17:33:05;;;;;;;44.88;28.00;;;;;;;;;;6255927;28;20046;-64
2022/10/13 17:36:13;;;;;;;38.92;26.00;;;;;;;;;;6250401;28;20068;-63
2022/10/13 17:39:16;;;;;;;38.80;26.15;;;;;;;;;;6253513;28;20061;-64
2022/10/13 17:42:18;;;;;;;40.90;26.10;;;;;;;;;;6256725;28;20063;-64
2022/10/13 17:45:20;;;;;;;38.47;24.70;;;;;;;;;;6253475;28;20049;-64
2022/10/13 17:48:22;;;;;;;39.20;26.52;;;;;;;;;;6253087;28;20055;-63
2022/10/13 17:51:25;;;;;;;35.83;25.15;;;;;;;;;;6254503;28;20099;-65